createdAt,value
2023-02-05T00:00:42.123Z,3.70
2023-02-05T00:03:10.122Z,3.60
2023-02-05T00:05:39.576Z,3.57
2023-02-05T00:08:07.571Z,3.90
2023-02-05T00:10:35.535Z,3.80
2023-02-05T00:13:03.579Z,4.20
2023-02-05T00:15:31.802Z,3.60
2023-02-05T00:18:00.155Z,3.70
2023-02-05T00:20:28.709Z,3.73
2023-02-05T00:22:58.130Z,3.23
2023-02-05T00:25:26.074Z,3.20
2023-02-05T00:27:54.085Z,3.47
2023-02-05T00:30:22.180Z,3.20
2023-02-05T00:32:50.041Z,3.20
2023-02-05T00:35:18.006Z,3.20
2023-02-05T00:37:45.816Z,3.27
2023-02-05T00:40:15.143Z,3.20
2023-02-05T00:42:43.058Z,3.27
2023-02-05T00:45:11.405Z,3.53
2023-02-05T00:47:39.227Z,2.97
2023-02-05T00:50:07.675Z,3.37
2023-02-05T00:52:35.593Z,2.97
2023-02-05T00:55:03.450Z,3.50
2023-02-05T00:57:33.128Z,3.03
2023-02-05T01:00:01.027Z,2.80
2023-02-05T01:02:29.094Z,2.50
2023-02-05T01:04:57.192Z,2.80
2023-02-05T01:07:25.126Z,3.00
2023-02-05T01:09:53.053Z,2.67
2023-02-05T01:12:22.352Z,2.93
2023-02-05T01:14:51.668Z,2.73
2023-02-05T01:17:19.588Z,2.90
2023-02-05T01:19:47.882Z,2.47
2023-02-05T01:22:16.036Z,2.80
2023-02-05T01:24:45.238Z,2.63
2023-02-05T01:27:13.132Z,2.70
2023-02-05T01:29:41.515Z,2.40
2023-02-05T01:32:11.178Z,2.80
2023-02-05T01:34:39.990Z,2.50
2023-02-05T01:37:07.970Z,2.90
2023-02-05T01:39:36.359Z,2.50
2023-02-05T01:42:05.373Z,2.70
2023-02-05T01:44:33.507Z,2.37
2023-02-05T01:47:01.452Z,2.47
2023-02-05T01:49:35.097Z,2.70
2023-02-05T01:52:06.642Z,2.50
2023-02-05T01:54:39.230Z,2.50
2023-02-05T01:57:11.348Z,2.40
2023-02-05T01:59:42.325Z,2.63
2023-02-05T02:02:10.497Z,2.30
2023-02-05T02:04:43.055Z,2.37
2023-02-05T02:07:14.293Z,2.30
2023-02-05T02:09:44.288Z,2.40
2023-02-05T02:12:15.142Z,2.30
2023-02-05T02:14:48.741Z,2.43
2023-02-05T02:17:19.407Z,2.40
2023-02-05T02:19:54.441Z,2.30
2023-02-05T02:22:44.222Z,2.43
2023-02-05T02:25:39.605Z,2.60
2023-02-05T02:28:13.729Z,2.30
2023-02-05T02:30:45.302Z,2.53
2023-02-05T02:33:19.886Z,2.70
2023-02-05T02:35:53.843Z,2.30
2023-02-05T02:38:28.302Z,2.60
2023-02-05T02:41:00.595Z,2.80
2023-02-05T02:43:33.397Z,2.43
2023-02-05T02:46:05.529Z,2.53
2023-02-05T02:48:36.377Z,2.30
2023-02-05T02:51:05.310Z,2.20
2023-02-05T02:53:39.768Z,2.20
2023-02-05T02:56:12.078Z,2.63
2023-02-05T02:58:44.368Z,2.53
2023-02-05T03:01:14.019Z,2.43
2023-02-05T03:03:46.831Z,2.43
2023-02-05T03:06:17.774Z,2.40
2023-02-05T03:08:51.904Z,2.80
2023-02-05T03:11:19.901Z,2.80
2023-02-05T03:13:49.718Z,2.57
2023-02-05T03:16:19.728Z,2.60
2023-02-05T03:18:48.862Z,2.57
2023-02-05T03:21:19.684Z,2.50
2023-02-05T03:23:49.870Z,2.33
2023-02-05T03:26:28.565Z,2.30
2023-02-05T03:28:59.488Z,2.50
2023-02-05T03:31:37.320Z,2.67
2023-02-05T03:34:19.982Z,2.63
2023-02-05T03:36:58.976Z,2.50
2023-02-05T03:39:36.229Z,2.50
2023-02-05T03:42:13.880Z,2.47
2023-02-05T03:45:13.899Z,2.53
2023-02-05T03:47:56.780Z,2.57
2023-02-05T03:50:31.417Z,2.97
2023-02-05T03:53:10.018Z,2.60
2023-02-05T03:55:42.792Z,2.70
2023-02-05T03:58:16.164Z,2.60
2023-02-05T04:00:46.142Z,2.80
2023-02-05T04:03:14.805Z,2.37
2023-02-05T04:05:42.623Z,2.70
2023-02-05T04:08:10.671Z,2.83
2023-02-05T04:10:38.670Z,2.37
2023-02-05T04:13:07.282Z,2.50
2023-02-05T04:15:35.696Z,2.63
2023-02-05T04:18:05.654Z,2.50
2023-02-05T04:20:33.800Z,2.60
2023-02-05T04:23:01.704Z,2.27
2023-02-05T04:25:29.761Z,2.40
2023-02-05T04:27:57.603Z,2.53
2023-02-05T04:30:26.512Z,2.50
2023-02-05T04:32:54.474Z,2.33
2023-02-05T04:35:23.862Z,2.30
2023-02-05T04:37:51.767Z,2.57
2023-02-05T04:40:20.541Z,2.40
2023-02-05T04:42:48.456Z,2.80
2023-02-05T04:45:16.586Z,2.60
2023-02-05T04:47:44.551Z,2.63
2023-02-05T04:50:13.075Z,2.70
2023-02-05T04:52:42.287Z,2.60
2023-02-05T04:55:10.267Z,2.70
2023-02-05T04:57:38.362Z,2.63
2023-02-05T05:00:07.048Z,2.63
2023-02-05T05:02:35.160Z,2.67
2023-02-05T05:05:03.092Z,2.73
2023-02-05T05:07:31.347Z,2.97
2023-02-05T05:10:00.726Z,3.00
2023-02-05T05:12:28.567Z,2.70
2023-02-05T05:14:57.595Z,2.90
2023-02-05T05:17:25.529Z,2.77
2023-02-05T05:19:53.578Z,2.90
2023-02-05T05:22:21.693Z,2.60
2023-02-05T05:24:49.753Z,2.63
2023-02-05T05:27:19.163Z,2.80
2023-02-05T05:29:47.357Z,2.77
2023-02-05T05:32:15.529Z,2.60
2023-02-05T05:34:43.578Z,2.77
2023-02-05T05:37:11.446Z,2.70
2023-02-05T05:39:56.655Z,2.70
2023-02-05T05:42:43.163Z,2.93
2023-02-05T05:45:11.066Z,2.30
2023-02-05T05:47:39.138Z,2.50
2023-02-05T05:50:08.189Z,2.83
2023-02-05T05:52:36.195Z,2.70
2023-02-05T05:55:04.043Z,2.73
2023-02-05T05:57:34.270Z,2.77
2023-02-05T06:00:02.867Z,2.70
2023-02-05T06:02:30.929Z,2.80
2023-02-05T06:04:58.827Z,3.10
2023-02-05T06:07:27.037Z,2.77
2023-02-05T06:09:54.923Z,2.90
2023-02-05T06:12:22.817Z,2.53
2023-02-05T06:14:52.219Z,2.70
2023-02-05T06:17:20.144Z,2.60
2023-02-05T06:19:48.298Z,3.00
2023-02-05T06:22:16.256Z,2.80
2023-02-05T06:24:44.113Z,2.63
2023-02-05T06:27:12.042Z,3.23
2023-02-05T06:29:40.064Z,3.33
2023-02-05T06:32:09.355Z,3.20
2023-02-05T06:34:37.243Z,2.90
2023-02-05T06:37:05.089Z,2.70
2023-02-05T06:39:32.925Z,3.13
2023-02-05T06:42:00.885Z,3.17
2023-02-05T06:44:29.331Z,3.13
2023-02-05T06:46:57.376Z,3.00
2023-02-05T06:49:26.645Z,2.90
2023-02-05T06:51:54.569Z,3.17
2023-02-05T06:54:22.677Z,3.13
2023-02-05T06:56:51.916Z,2.87
2023-02-05T06:59:19.938Z,2.80
2023-02-05T07:01:47.921Z,3.20
2023-02-05T07:04:18.466Z,3.10
2023-02-05T07:06:48.242Z,3.20
2023-02-05T07:09:16.378Z,3.37
2023-02-05T07:11:44.176Z,3.30
2023-02-05T07:14:12.394Z,3.30
2023-02-05T07:16:40.382Z,3.17
2023-02-05T07:19:08.586Z,2.87
2023-02-05T07:21:38.466Z,3.03
2023-02-05T07:24:08.266Z,2.93
2023-02-05T07:26:37.021Z,2.90
2023-02-05T07:29:05.360Z,3.20
2023-02-05T07:31:33.343Z,3.23
2023-02-05T07:34:01.600Z,3.20
2023-02-05T07:36:29.554Z,3.20
2023-02-05T07:38:58.966Z,3.40
2023-02-05T07:41:28.180Z,3.10
2023-02-05T07:43:56.137Z,3.13
2023-02-05T07:46:24.908Z,3.20
2023-02-05T07:48:53.643Z,3.30
2023-02-05T07:51:24.653Z,3.17
2023-02-05T07:53:53.508Z,3.30
2023-02-05T07:56:22.719Z,3.20
2023-02-05T07:58:52.618Z,3.60
2023-02-05T08:01:20.581Z,3.37
2023-02-05T08:03:48.939Z,3.20
2023-02-05T08:06:19.635Z,3.47
2023-02-05T08:08:48.695Z,3.17
2023-02-05T08:11:18.229Z,3.80
2023-02-05T08:13:46.826Z,3.33
2023-02-05T08:16:16.958Z,3.67
2023-02-05T08:18:50.190Z,3.70
2023-02-05T08:21:19.338Z,3.63
2023-02-05T08:23:47.519Z,3.43
2023-02-05T08:26:16.507Z,3.73
2023-02-05T08:28:46.138Z,3.13
2023-02-05T08:31:18.158Z,3.57
2023-02-05T08:33:47.819Z,3.90
2023-02-05T08:36:16.396Z,3.93
2023-02-05T08:38:44.466Z,3.30
2023-02-05T08:41:13.439Z,3.63
2023-02-05T08:43:43.148Z,3.80
2023-02-05T08:46:11.957Z,3.40
2023-02-05T08:48:43.902Z,3.53
2023-02-05T08:51:13.181Z,3.37
2023-02-05T08:53:42.301Z,3.60
2023-02-05T08:56:18.693Z,3.87
2023-02-05T08:58:48.493Z,3.23
2023-02-05T09:01:18.430Z,3.60
2023-02-05T09:03:48.042Z,3.53
2023-02-05T09:06:17.258Z,3.73
2023-02-05T09:08:47.331Z,5.07
2023-02-05T09:11:15.399Z,3.57
2023-02-05T09:13:45.959Z,4.20
2023-02-05T09:16:15.244Z,3.73
2023-02-05T09:18:44.528Z,3.83
2023-02-05T09:21:16.195Z,3.70
2023-02-05T09:23:44.329Z,4.03
2023-02-05T09:26:12.523Z,4.10
2023-02-05T09:28:43.032Z,4.17
2023-02-05T09:31:17.149Z,3.83
2023-02-05T09:33:46.489Z,4.17
2023-02-05T09:36:17.670Z,4.47
2023-02-05T09:38:46.502Z,3.90
2023-02-05T09:41:24.635Z,3.70
2023-02-05T09:43:58.206Z,3.90
2023-02-05T09:46:37.305Z,4.20
2023-02-05T09:49:15.036Z,4.13
2023-02-05T09:51:47.155Z,4.30
2023-02-05T09:54:21.779Z,3.47
2023-02-05T09:56:51.554Z,4.03
2023-02-05T09:59:23.723Z,4.20
2023-02-05T10:01:55.988Z,3.97
2023-02-05T10:04:26.596Z,4.27
2023-02-05T10:07:31.957Z,4.10
2023-02-05T10:10:18.527Z,4.40
2023-02-05T10:13:02.443Z,4.20
2023-02-05T10:15:50.258Z,4.37
2023-02-05T10:18:28.510Z,4.10
2023-02-05T10:21:09.011Z,3.73
2023-02-05T10:24:01.824Z,4.20
2023-02-05T10:26:37.720Z,4.10
2023-02-05T10:29:16.585Z,4.00
2023-02-05T10:31:56.725Z,4.20
2023-02-05T10:34:38.523Z,4.10
2023-02-05T10:37:13.450Z,4.03
2023-02-05T10:39:43.337Z,3.70
2023-02-05T10:42:28.719Z,3.73
2023-02-05T10:45:04.793Z,4.43
2023-02-05T10:47:47.287Z,4.40
2023-02-05T10:50:26.213Z,3.93
2023-02-05T10:52:54.403Z,3.77
2023-02-05T10:55:23.817Z,3.73
2023-02-05T10:57:52.022Z,3.60
2023-02-05T11:00:21.928Z,3.90
2023-02-05T11:02:55.061Z,3.97
2023-02-05T11:05:29.242Z,3.97
2023-02-05T11:08:01.266Z,3.87
2023-02-05T11:10:33.785Z,4.03
2023-02-05T11:13:15.973Z,3.90
2023-02-05T11:15:56.309Z,3.77
2023-02-05T11:18:30.774Z,4.03
2023-02-05T11:21:01.494Z,3.90
2023-02-05T11:23:32.999Z,3.90
2023-02-05T11:26:08.784Z,3.90
2023-02-05T11:28:39.731Z,3.53
2023-02-05T11:31:23.320Z,3.80
2023-02-05T11:33:51.423Z,3.60
2023-02-05T11:36:23.578Z,4.27
2023-02-05T11:38:54.032Z,4.10
2023-02-05T11:41:31.782Z,3.60
2023-02-05T11:44:01.885Z,4.10
2023-02-05T11:46:36.082Z,3.50
2023-02-05T11:49:05.562Z,3.67
2023-02-05T11:51:46.255Z,3.97
2023-02-05T11:54:21.577Z,3.67
2023-02-05T11:57:08.516Z,4.57
2023-02-05T11:59:37.067Z,4.10
2023-02-05T12:02:33.583Z,4.10
2023-02-05T12:05:08.572Z,3.90
2023-02-05T12:07:41.094Z,3.87
2023-02-05T12:10:16.912Z,4.07
2023-02-05T12:12:59.873Z,3.60
2023-02-05T12:16:00.610Z,3.50
2023-02-05T12:18:39.924Z,4.13
2023-02-05T12:21:17.359Z,3.60
2023-02-05T12:23:59.704Z,4.00
2023-02-05T12:26:33.948Z,4.20
2023-02-05T12:29:27.936Z,4.17
2023-02-05T12:32:02.521Z,4.30
2023-02-05T12:34:46.601Z,3.90
2023-02-05T12:37:29.684Z,4.53
2023-02-05T12:40:08.801Z,4.70
2023-02-05T12:42:39.229Z,4.07
2023-02-05T12:45:25.591Z,4.60
2023-02-05T12:48:11.125Z,4.63
2023-02-05T12:50:54.928Z,5.30
2023-02-05T12:53:48.790Z,4.20
2023-02-05T12:56:34.627Z,5.00
2023-02-05T12:59:09.346Z,4.47
2023-02-05T13:01:44.029Z,3.80
2023-02-05T13:04:24.222Z,4.30
2023-02-05T13:06:59.768Z,3.80
2023-02-05T13:09:35.273Z,4.03
2023-02-05T13:12:09.808Z,4.10
2023-02-05T13:14:42.614Z,4.77
2023-02-05T13:17:18.890Z,4.00
2023-02-05T13:19:50.844Z,4.33
2023-02-05T13:22:40.814Z,4.20
2023-02-05T13:25:39.072Z,4.17
2023-02-05T13:28:42.456Z,4.83
2023-02-05T13:31:23.425Z,4.17
2023-02-05T13:33:55.099Z,4.57
2023-02-05T13:36:54.875Z,4.47
2023-02-05T13:39:58.370Z,4.40
2023-02-05T13:43:05.272Z,4.30
2023-02-05T13:46:23.506Z,3.90
2023-02-05T13:49:34.547Z,4.47
2023-02-05T13:52:33.435Z,5.43
2023-02-05T13:55:20.269Z,5.03
2023-02-05T13:58:20.659Z,4.90
2023-02-05T14:00:57.330Z,4.30
2023-02-05T14:03:35.393Z,4.13
2023-02-05T14:06:29.159Z,4.90
2023-02-05T14:09:03.922Z,4.70
2023-02-05T14:11:48.195Z,4.43
2023-02-05T14:14:25.186Z,3.90
2023-02-05T14:16:54.941Z,4.37
2023-02-05T14:19:26.947Z,4.20
2023-02-05T14:22:04.199Z,3.83
2023-02-05T14:24:46.782Z,4.30
2023-02-05T14:27:47.658Z,4.33
2023-02-05T14:30:48.071Z,4.43
2023-02-05T14:33:34.143Z,3.97
2023-02-05T14:36:35.211Z,4.47
2023-02-05T14:39:08.306Z,4.40
2023-02-05T14:41:50.856Z,4.80
2023-02-05T14:44:22.579Z,4.60
2023-02-05T14:47:01.852Z,4.27
2023-02-05T14:49:37.877Z,4.70
2023-02-05T14:52:09.490Z,5.10
2023-02-05T14:54:46.698Z,4.40
2023-02-05T14:57:23.597Z,4.30
2023-02-05T14:59:56.074Z,4.97
2023-02-05T15:02:52.861Z,4.63
2023-02-05T15:05:27.122Z,4.70
2023-02-05T15:08:05.868Z,4.20
2023-02-05T15:10:47.199Z,4.53
2023-02-05T15:13:17.215Z,4.60
2023-02-05T15:16:10.509Z,4.33
2023-02-05T15:18:42.052Z,5.00
2023-02-05T15:21:17.530Z,5.13
2023-02-05T15:23:49.887Z,4.93
2023-02-05T15:26:26.473Z,5.60
2023-02-05T15:29:00.865Z,4.93
2023-02-05T15:31:34.949Z,4.30
2023-02-05T15:34:21.607Z,5.50
2023-02-05T15:36:55.271Z,4.97
2023-02-05T15:39:31.543Z,5.00
2023-02-05T15:42:04.112Z,4.57
2023-02-05T15:44:34.266Z,5.63
2023-02-05T15:47:05.278Z,4.93
2023-02-05T15:49:38.161Z,5.40
2023-02-05T15:52:07.158Z,4.67
2023-02-05T15:54:37.809Z,5.80
2023-02-05T15:57:09.266Z,5.43
2023-02-05T15:59:37.429Z,4.97
2023-02-05T16:02:09.545Z,5.23
2023-02-05T16:04:40.163Z,5.10
2023-02-05T16:07:22.022Z,5.50
2023-02-05T16:09:53.817Z,5.53
2023-02-05T16:12:23.506Z,5.27
2023-02-05T16:15:02.718Z,5.57
2023-02-05T16:17:36.689Z,6.37
2023-02-05T16:20:16.924Z,6.40
2023-02-05T16:22:48.817Z,5.53
2023-02-05T16:25:29.255Z,5.67
2023-02-05T16:28:01.156Z,6.07
2023-02-05T16:30:35.201Z,6.27
2023-02-05T16:33:05.564Z,5.70
2023-02-05T16:35:37.667Z,6.80
2023-02-05T16:38:09.152Z,5.40
2023-02-05T16:40:43.167Z,6.10
2023-02-05T16:43:29.886Z,5.50
2023-02-05T16:46:34.161Z,6.43
2023-02-05T16:49:03.155Z,7.23
2023-02-05T16:51:35.565Z,7.90
2023-02-05T16:54:22.382Z,7.70
2023-02-05T16:56:59.438Z,7.33
2023-02-05T16:59:32.917Z,7.90
2023-02-05T17:02:01.451Z,7.80
2023-02-05T17:04:32.651Z,7.13
2023-02-05T17:07:02.460Z,7.23
2023-02-05T17:09:36.815Z,6.77
2023-02-05T17:12:41.295Z,7.93
2023-02-05T17:15:40.536Z,8.37
2023-02-05T17:18:24.427Z,8.67
2023-02-05T17:20:52.547Z,8.80
2023-02-05T17:23:20.706Z,9.23
2023-02-05T17:25:55.108Z,10.13
2023-02-05T17:28:25.945Z,9.77
2023-02-05T17:30:57.865Z,11.10
2023-02-05T17:33:29.481Z,11.13
2023-02-05T17:35:57.814Z,12.43
2023-02-05T17:38:25.632Z,11.60
2023-02-05T17:41:13.545Z,12.47
2023-02-05T17:43:41.698Z,11.70
2023-02-05T17:46:14.713Z,12.90
2023-02-05T17:48:44.597Z,12.67
2023-02-05T17:51:19.512Z,13.87
2023-02-05T17:53:47.620Z,14.60
2023-02-05T17:56:16.112Z,15.03
2023-02-05T17:58:43.996Z,14.27
2023-02-05T18:01:13.511Z,16.37
2023-02-05T18:03:41.494Z,15.63
2023-02-05T18:06:11.666Z,16.33
2023-02-05T18:08:39.776Z,16.57
2023-02-05T18:11:07.890Z,16.23
2023-02-05T18:13:36.240Z,15.97
2023-02-05T18:16:04.484Z,15.43
2023-02-05T18:18:36.260Z,15.50
2023-02-05T18:21:04.959Z,17.97
2023-02-05T18:23:33.525Z,17.77
2023-02-05T18:26:08.621Z,16.30
2023-02-05T18:28:37.082Z,17.20
2023-02-05T18:31:17.431Z,17.47
2023-02-05T18:33:56.977Z,16.07
2023-02-05T18:36:25.111Z,16.20
2023-02-05T18:38:57.486Z,16.37
2023-02-05T18:41:25.910Z,17.63
2023-02-05T18:43:55.638Z,16.53
2023-02-05T18:46:24.658Z,17.37
2023-02-05T18:48:55.429Z,16.73
2023-02-05T18:51:24.710Z,16.80
2023-02-05T18:53:54.014Z,16.97
2023-02-05T18:56:24.228Z,19.17
2023-02-05T18:58:54.513Z,16.20
2023-02-05T19:01:22.918Z,16.20
2023-02-05T19:03:52.870Z,15.93
2023-02-05T19:06:22.655Z,17.40
2023-02-05T19:08:51.443Z,17.03
2023-02-05T19:11:22.996Z,18.03
2023-02-05T19:13:59.781Z,16.80
2023-02-05T19:16:29.500Z,17.60
2023-02-05T19:18:57.905Z,16.43
2023-02-05T19:21:29.658Z,17.03
2023-02-05T19:23:59.443Z,17.13
2023-02-05T19:26:29.685Z,16.93
2023-02-05T19:28:59.157Z,17.13
2023-02-05T19:31:30.061Z,17.40
2023-02-05T19:33:58.695Z,17.17
2023-02-05T19:36:29.203Z,17.50
2023-02-05T19:39:00.480Z,17.07
2023-02-05T19:41:29.164Z,16.73
2023-02-05T19:43:59.833Z,17.23
2023-02-05T19:46:29.205Z,16.83
2023-02-05T19:49:00.614Z,18.53
2023-02-05T19:51:29.970Z,17.70
2023-02-05T19:53:58.978Z,18.03
2023-02-05T19:56:27.708Z,18.33
2023-02-05T19:58:57.347Z,17.87
2023-02-05T20:01:26.949Z,16.57
2023-02-05T20:03:56.602Z,18.27
2023-02-05T20:06:27.098Z,19.50
2023-02-05T20:08:56.988Z,17.83
2023-02-05T20:11:24.872Z,17.87
2023-02-05T20:13:53.915Z,17.27
2023-02-05T20:16:24.030Z,18.53
2023-02-05T20:18:54.998Z,17.80
2023-02-05T20:21:23.202Z,18.83
2023-02-05T20:23:51.606Z,17.30
2023-02-05T20:26:22.301Z,17.97
2023-02-05T20:29:11.399Z,17.73
2023-02-05T20:31:42.945Z,18.93
2023-02-05T20:34:18.160Z,19.77
2023-02-05T20:36:47.642Z,17.77
2023-02-05T20:39:17.198Z,17.90
2023-02-05T20:41:47.395Z,18.23
2023-02-05T20:44:15.595Z,18.03
2023-02-05T20:46:43.725Z,17.20
2023-02-05T20:49:11.745Z,18.47
2023-02-05T20:51:39.879Z,18.07
2023-02-05T20:54:07.922Z,18.83
2023-02-05T20:56:36.474Z,18.17
2023-02-05T20:59:07.742Z,17.30
2023-02-05T21:01:41.408Z,17.43
2023-02-05T21:04:12.910Z,19.13
2023-02-05T21:06:42.144Z,17.57
2023-02-05T21:09:10.898Z,18.73
2023-02-05T21:11:39.297Z,18.57
2023-02-05T21:14:09.675Z,19.33
2023-02-05T21:16:38.276Z,19.00
2023-02-05T21:19:08.745Z,20.20
2023-02-05T21:21:38.129Z,19.47
2023-02-05T21:24:08.508Z,20.57
2023-02-05T21:26:38.675Z,18.67
2023-02-05T21:29:11.151Z,19.13
2023-02-05T21:31:41.873Z,19.33
2023-02-05T21:34:12.895Z,18.60
2023-02-05T21:36:41.457Z,19.87
2023-02-05T21:39:10.759Z,19.73
2023-02-05T21:41:39.846Z,18.57
2023-02-05T21:44:09.751Z,18.60
2023-02-05T21:46:38.379Z,19.57
2023-02-05T21:49:08.155Z,18.60
2023-02-05T21:51:36.756Z,19.37
2023-02-05T21:54:07.089Z,17.97
2023-02-05T21:56:37.031Z,18.90
2023-02-05T21:59:05.639Z,18.97
2023-02-05T22:01:36.705Z,18.77
2023-02-05T22:04:08.301Z,19.30
2023-02-05T22:06:37.051Z,21.10
2023-02-05T22:09:07.028Z,18.20
2023-02-05T22:11:35.186Z,18.73
2023-02-05T22:14:03.536Z,18.43
2023-02-05T22:16:34.764Z,18.77
2023-02-05T22:19:04.753Z,19.27
2023-02-05T22:21:34.766Z,19.40
2023-02-05T22:24:04.067Z,19.50
2023-02-05T22:26:34.292Z,19.50
2023-02-05T22:29:04.555Z,18.97
2023-02-05T22:31:32.444Z,23.67
2023-02-05T22:34:01.966Z,23.80
2023-02-05T22:36:31.795Z,20.87
2023-02-05T22:39:01.955Z,19.87
2023-02-05T22:41:31.930Z,20.70
2023-02-05T22:44:01.271Z,19.70
2023-02-05T22:46:30.782Z,19.87
2023-02-05T22:49:01.627Z,19.90
2023-02-05T22:51:31.784Z,20.37
2023-02-05T22:54:00.239Z,19.43
2023-02-05T22:56:29.212Z,19.73
2023-02-05T22:58:57.649Z,18.10
2023-02-05T23:01:27.925Z,18.37
2023-02-05T23:03:57.297Z,18.67
2023-02-05T23:06:28.755Z,17.87
2023-02-05T23:08:58.803Z,18.57
2023-02-05T23:11:28.307Z,18.80
2023-02-05T23:13:56.868Z,18.93
2023-02-05T23:16:29.841Z,19.23
2023-02-05T23:19:01.218Z,17.87
2023-02-05T23:21:33.089Z,17.43
2023-02-05T23:24:03.811Z,17.53
2023-02-05T23:26:33.917Z,17.87
2023-02-05T23:29:04.950Z,16.90
2023-02-05T23:31:33.647Z,16.70
2023-02-05T23:34:02.259Z,17.50
2023-02-05T23:36:31.661Z,18.23
2023-02-05T23:39:00.030Z,16.83
2023-02-05T23:41:37.242Z,15.97
2023-02-05T23:44:07.398Z,15.17
2023-02-05T23:46:36.646Z,15.50
2023-02-05T23:49:04.850Z,15.87
2023-02-05T23:51:35.178Z,15.10
2023-02-05T23:54:03.516Z,15.93
2023-02-05T23:56:33.854Z,16.10
2023-02-05T23:59:02.321Z,17.17
